Ithomi — V7UZ9 — position and weather

sailwx.info

Track history (hours):
 
Tides and Currents Weather Stations Pressure Air Temp Water Temp Dewpoint Dewpoint Depression Visibility Wind Speed Wind Dir Waves Ship Positions

Ithomi

Last reported at 2017-Aug-17 19:03 UTC. Time now 2017-Aug-19 07:28 UTC.
Position N 01°17' E 103°22'.

Length 189 m; draft 12.9 m.

Type: Ship. MMSI: 538004069.

Date/timePositionNaut miles runAvg speedWind from/ knotsBaromVisibWave heightAir tempDewpointWater temp
2017-Aug-17 19:03N 01°17' E 103°22'213.4
2017-Aug-17 18:57N 01°16' E 103°23'612.9
2017-Aug-17 18:28N 01°14' E 103°28'613.2
2017-Aug-17 18:00N 01°12' E 103°34'612.0
2017-Aug-17 17:30N 01°11' E 103°40'510.5
2017-Aug-17 17:00N 01°09' E 103°45'5 9.6
2017-Aug-17 16:31N 01°11' E 103°49'5 9.4
2017-Aug-17 16:01N 01°13' E 103°54'5 9.2
2017-Aug-17 15:30N 01°15' E 103°58'3 6.0
2017-Aug-17 15:00N 01°17' E 103°60'0 0.1
2017-Aug-17 12:17N 01°18' E 103°59'0 0.0
2017-Aug-17 11:50N 01°18' E 103°59'0 0.2
2017-Aug-17 11:29N 01°18' E 103°59'2 0.4
2017-Aug-17 05:40N 01°16' E 103°58'0 1.8
2017-Aug-17 05:28N 01°16' E 103°59'  
Track history (hours):
 
Tides and Currents Weather Stations Pressure Air Temp Water Temp Dewpoint Dewpoint Depression Visibility Wind Speed Wind Dir Waves Ship Positions

Ithomi

Last reported at 2017-Aug-17 19:03 UTC. Time now 2017-Aug-19 07:28 UTC.
Position N 01°17' E 103°22'.

Length 189 m; draft 12.9 m.

Type: Ship. MMSI: 538004069.

Date/timePositionNaut miles runAvg speedWind from/ knotsBaromVisibWave heightAir tempDewpointWater temp
2017-Aug-17 19:03N 01°17' E 103°22'213.4
2017-Aug-17 18:57N 01°16' E 103°23'612.9
2017-Aug-17 18:28N 01°14' E 103°28'613.2
2017-Aug-17 18:00N 01°12' E 103°34'612.0
2017-Aug-17 17:30N 01°11' E 103°40'510.5
2017-Aug-17 17:00N 01°09' E 103°45'5 9.6
2017-Aug-17 16:31N 01°11' E 103°49'5 9.4
2017-Aug-17 16:01N 01°13' E 103°54'5 9.2
2017-Aug-17 15:30N 01°15' E 103°58'3 6.0
2017-Aug-17 15:00N 01°17' E 103°60'0 0.1
2017-Aug-17 12:17N 01°18' E 103°59'0 0.0
2017-Aug-17 11:50N 01°18' E 103°59'0 0.2
2017-Aug-17 11:29N 01°18' E 103°59'2 0.4
2017-Aug-17 05:40N 01°16' E 103°58'0 1.8
2017-Aug-17 05:28N 01°16' E 103°59'  

Dump ship's entire track history